Time;durP1;ratioP1;P1;durP2;ratioP2;P2;SDS_P1;SDS_P2;PMS_P1;PMS_P2;Temp;Humidity;BMP_temperature;BMP_pressure;BME280_temperature;BME280_humidity;BME280_pressure;Samples;Min_cycle;Max_cycle;Signal;HPM_P1;HPM_P2
2021/06/10 00:01:04;;;;;;;;;13.67;12.33;;;;;23.83;53.15;101848.88;6278635;22;45017;-95
2021/06/10 00:03:34;;;;;;;;;11.00;11.00;;;;;23.81;52.96;101839.97;6305506;22;45475;-94
2021/06/10 00:05:59;;;;;;;;;12.33;12.00;;;;;23.81;53.17;101842.66;6253892;22;44925;-95
2021/06/10 00:08:25;;;;;;;;;11.00;11.00;;;;;23.89;52.53;101864.88;6270099;22;45248;-95
2021/06/10 00:10:53;;;;;;;;;14.33;13.33;;;;;23.80;53.06;101865.03;6268973;22;44782;-96
2021/06/10 00:13:20;;;;;;;;;12.33;11.67;;;;;23.89;53.24;101869.34;6268410;22;46955;-95
2021/06/10 00:15:51;;;;;;;;;10.33;10.33;;;;;23.90;53.12;101876.50;6262865;22;45859;-96
2021/06/10 00:18:20;;;;;;;;;13.00;13.00;;;;;23.77;53.15;101866.00;6225684;22;45304;-96
2021/06/10 00:20:46;;;;;;;;;11.33;10.33;;;;;23.65;53.44;101861.75;6249283;22;45512;-96
2021/06/10 00:23:16;;;;;;;;;13.67;13.67;;;;;23.77;53.11;101882.13;6249951;22;47106;-96
2021/06/10 00:25:47;;;;;;;;;12.67;12.67;;;;;23.62;53.55;101864.50;6276337;22;45263;-96
2021/06/10 00:28:26;;;;;;;;;12.33;12.00;;;;;23.54;53.93;101847.69;6278938;22;45305;-96
2021/06/10 00:30:59;;;;;;;;;16.67;14.00;;;;;23.63;53.71;101879.69;6279359;22;45466;-96
2021/06/10 00:33:29;;;;;;;;;12.33;12.00;;;;;23.58;54.22;101885.13;6256382;22;47234;-96
2021/06/10 00:35:58;;;;;;;;;12.33;12.33;;;;;23.58;54.49;101876.22;6282637;22;44863;-95
2021/06/10 00:38:37;;;;;;;;;;;;;;;;;;;;;
2021/06/10 00:41:04;;;;;;;;;17.33;13.33;;;;;23.40;54.76;101846.09;6258653;22;63498;-94
2021/06/10 00:43:38;;;;;;;;;14.33;12.33;;;;;23.55;54.74;101887.91;6282441;22;47249;-95
2021/06/10 00:46:06;;;;;;;;;12.67;12.00;;;;;23.36;54.92;101863.16;6283128;22;44719;-95
2021/06/10 00:48:39;;;;;;;;;12.67;11.00;;;;;23.49;54.91;101893.38;6271285;22;44731;-93
2021/06/10 00:51:18;;;;;;;;;11.00;11.00;;;;;23.46;54.87;101883.59;6299046;22;44823;-94
2021/06/10 00:53:49;;;;;;;;;14.33;11.33;;;;;23.29;54.80;101858.84;6273095;22;46947;-96
2021/06/10 00:56:22;;;;;;;;;12.33;11.67;;;;;23.35;55.33;101880.19;6296401;22;45666;-94
2021/06/10 00:58:55;;;;;;;;;11.00;11.00;;;;;23.31;55.05;101865.94;6298347;22;44714;-94
2021/06/10 01:01:32;;;;;;;;;13.33;13.33;;;;;23.20;54.75;101863.47;6272267;22;44788;-94
2021/06/10 01:03:57;;;;;;;;;13.33;11.00;;;;;23.16;54.67;101864.41;6273285;22;47977;-92
2021/06/10 01:06:54;;;;;;;;;;;;;;;;;;;;;
2021/06/10 01:09:48;;;;;;;;;11.67;11.67;;;;;23.11;54.76;101853.78;6272366;22;69178;-95
2021/06/10 01:12:42;;;;;;;;;;;;;;;;;;;;;
2021/06/10 01:15:15;;;;;;;;;11.00;11.00;;;;;23.07;55.28;101856.53;6178002;23;76063;-93
2021/06/10 01:17:56;;;;;;;;;14.00;12.00;;;;;22.97;55.05;101845.09;6153212;23;44709;-95
2021/06/10 01:20:26;;;;;;;;;13.33;13.33;;;;;22.91;54.95;101838.03;6121487;23;44750;-95
2021/06/10 01:22:58;;;;;;;;;14.33;13.00;;;;;23.04;55.22;101865.50;6143464;23;44734;-96
2021/06/10 01:25:50;;;;;;;;;11.67;11.33;;;;;22.98;54.90;101861.16;6141973;23;46909;-95
2021/06/10 01:28:33;;;;;;;;;14.33;12.00;;;;;22.91;54.98;101846.06;6142478;23;45388;-96
2021/06/10 01:31:07;;;;;;;;;13.00;12.00;;;;;22.94;55.04;101845.13;6144242;23;45274;-95
2021/06/10 01:33:46;;;;;;;;;14.67;12.33;;;;;22.97;55.50;101850.47;6141035;23;45216;-96
2021/06/10 01:36:18;;;;;;;;;13.67;13.67;;;;;22.73;55.35;101826.72;6130339;23;47841;-96
2021/06/10 01:38:49;;;;;;;;;15.67;13.00;;;;;22.84;55.08;101855.13;6136019;23;45347;-94
2021/06/10 01:41:20;;;;;;;;;15.33;14.67;;;;;22.81;55.46;101853.38;6164301;23;45401;-94
2021/06/10 01:44:01;;;;;;;;;15.33;12.33;;;;;22.79;55.65;101853.41;6166409;23;44933;-96
2021/06/10 01:46:29;;;;;;;;;13.33;11.00;;;;;22.69;55.54;101825.00;6140228;23;46790;-94
2021/06/10 01:49:00;;;;;;;;;14.67;11.33;;;;;22.72;55.46;101830.28;6185422;22;45261;-95
2021/06/10 01:51:31;;;;;;;;;15.00;14.00;;;;;22.78;55.64;101837.38;6228626;22;45370;-95
2021/06/10 01:54:03;;;;;;;;;14.00;13.00;;;;;22.81;55.77;101845.34;6276143;22;45424;-96
2021/06/10 01:56:40;;;;;;;;;;;;;;;;;;;;;
2021/06/10 01:59:11;;;;;;;;;12.00;12.00;;;;;22.66;55.71;101833.97;6249638;22;71798;-96
2021/06/10 02:01:41;;;;;;;;;10.33;10.00;;;;;22.76;55.98;101853.44;6252250;22;44752;-96
2021/06/10 02:04:11;;;;;;;;;10.00;9.00;;;;;22.62;55.77;101820.59;6277855;22;45448;-96
2021/06/10 02:06:42;;;;;;;;;11.33;11.00;;;;;22.57;55.34;101818.00;6277299;22;47273;-96
2021/06/10 02:09:10;;;;;;;;;16.00;13.00;;;;;22.61;55.46;101826.88;6247266;22;45411;-95
2021/06/10 02:11:48;;;;;;;;;12.67;12.67;;;;;22.59;55.90;101826.88;6275491;22;45342;-95
2021/06/10 02:14:21;;;;;;;;;13.00;13.00;;;;;22.53;55.59;101819.84;6247797;22;45306;-95
2021/06/10 02:16:57;;;;;;;;;14.00;12.33;;;;;22.59;56.20;101826.03;6275668;22;47094;-95
2021/06/10 02:19:28;;;;;;;;;12.00;12.00;;;;;22.69;55.78;101848.22;6282585;22;45176;-95
2021/06/10 02:22:19;;;;;;;;;;;;;;;;;;;;;
2021/06/10 02:25:03;;;;;;;;;14.00;13.00;;;;;22.55;56.06;101850.19;6284201;22;64275;-95
2021/06/10 02:27:46;;;;;;;;;15.67;13.00;;;;;22.53;56.27;101846.63;6286199;22;47067;-94
2021/06/10 02:30:15;;;;;;;;;11.67;11.67;;;;;22.46;55.97;101831.56;6286146;22;45284;-95
2021/06/10 02:32:50;;;;;;;;;15.33;13.00;;;;;22.43;56.09;101827.16;6293239;22;44644;-95
2021/06/10 02:35:22;;;;;;;;;11.67;11.67;;;;;22.57;55.88;101855.50;6297417;22;44787;-95
2021/06/10 02:38:15;;;;;;;;;14.00;13.67;;;;;22.46;55.92;101828.00;6271470;22;45103;-93
2021/06/10 02:40:45;;;;;;;;;15.00;13.00;;;;;22.47;55.41;101845.84;6297371;22;44935;-94
2021/06/10 02:43:20;;;;;;;;;10.67;10.67;;;;;22.37;55.29;101837.94;6290484;22;45395;-94
2021/06/10 02:45:53;;;;;;;;;12.67;12.00;;;;;22.39;54.95;101841.50;6301179;22;44725;-94
2021/06/10 02:48:56;;;;;;;;;12.67;11.00;;;;;22.35;54.68;101846.91;6303465;22;46807;-93
2021/06/10 02:51:23;;;;;;;;;11.33;11.33;;;;;22.21;54.71;101818.53;6150205;22;44806;-94
2021/06/10 02:54:04;;;;;;;;;;;;;;;;;;;;;
2021/06/10 02:56:38;;;;;;;;;13.33;12.33;;;;;22.12;54.75;101818.66;6148450;23;66130;-93
2021/06/10 02:59:21;;;;;;;;;9.00;9.00;;;;;22.07;54.68;101824.97;6126220;23;47207;-94
2021/06/10 03:01:50;;;;;;;;;12.33;12.00;;;;;22.03;54.53;101817.88;6127126;23;44821;-93
2021/06/10 03:04:22;;;;;;;;;10.00;9.00;;;;;22.03;54.59;101827.69;6116403;23;45322;-95
2021/06/10 03:06:55;;;;;;;;;13.33;12.00;;;;;21.98;54.40;101822.41;6107652;23;45502;-93
2021/06/10 03:10:26;;;;;;;;;12.00;12.00;;;;;22.05;54.39;101842.84;6110207;23;45333;-94
2021/06/10 03:12:58;;;;;;;;;11.67;11.67;;;;;21.86;54.26;101816.31;6128452;23;45414;-94
2021/06/10 03:15:44;;;;;;;;;;;;;;;;;;;;;
2021/06/10 03:18:21;;;;;;;;;10.00;9.00;;;;;21.80;54.33;101819.03;6123475;23;62174;-96
2021/06/10 03:21:00;;;;;;;;;;;;;;;;;;;;;
2021/06/10 03:23:42;;;;;;;;;;;;;;;;;;;;;
2021/06/10 03:26:47;;;;;;;;;;;;;;;;;;;;;
2021/06/10 03:29:24;;;;;;;;;15.00;13.00;;;;;21.61;54.68;101816.59;6249625;22;63932;-95
2021/06/10 03:32:06;;;;;;;;;;;;;;;;;;;;;
2021/06/10 03:34:35;;;;;;;;;13.33;13.33;;;;;21.62;54.98;101829.06;6247125;22;72809;-95
2021/06/10 03:37:07;;;;;;;;;12.67;12.00;;;;;21.50;54.88;101807.78;6272321;22;45302;-94
2021/06/10 03:39:41;;;;;;;;;12.67;11.67;;;;;21.56;54.75;101818.44;6248175;22;45323;-95
2021/06/10 03:42:12;;;;;;;;;13.00;13.00;;;;;21.47;54.62;101806.03;6271480;22;46754;-95
2021/06/10 03:44:46;;;;;;;;;13.33;13.00;;;;;21.43;54.97;101811.47;6271127;22;45449;-95
2021/06/10 03:47:25;;;;;;;;;16.00;13.00;;;;;21.32;55.16;101799.06;6271566;22;45233;-94
2021/06/10 03:49:53;;;;;;;;;16.67;14.67;;;;;21.41;55.23;101814.13;6271937;22;45385;-94
2021/06/10 03:52:26;;;;;;;;;14.00;13.00;;;;;21.39;55.25;101814.16;6245914;22;46973;-95
2021/06/10 03:54:56;;;;;;;;;12.00;11.67;;;;;21.25;55.35;101792.03;6271583;22;45483;-94
2021/06/10 03:57:22;;;;;;;;;17.00;14.33;;;;;21.31;54.98;101802.66;6246249;22;45400;-95
2021/06/10 04:00:08;;;;;;;;;12.67;11.67;;;;;21.25;55.16;101792.03;6272566;22;45287;-95
2021/06/10 04:02:34;;;;;;;;;11.00;9.00;;;;;21.16;55.29;101782.31;6246110;22;48568;-94
2021/06/10 04:05:13;;;;;;;;;15.00;12.00;;;;;21.16;55.55;101791.22;6247378;22;45426;-93
2021/06/10 04:07:41;;;;;;;;;13.00;12.33;;;;;21.13;55.34;101783.22;6248450;22;45177;-95
2021/06/10 04:10:19;;;;;;;;;12.67;12.33;;;;;21.14;55.53;101787.69;6249421;22;45510;-94
2021/06/10 04:12:47;;;;;;;;;11.75;10.25;;;;;21.12;54.96;101775.22;6279055;22;47031;-93
2021/06/10 04:15:21;;;;;;;;;11.00;8.67;;;;;21.10;54.97;101783.25;6290069;22;45188;-94
2021/06/10 04:17:47;;;;;;;;;9.33;8.00;;;;;21.24;54.44;101816.97;6297566;22;44801;-94
2021/06/10 04:20:43;;;;;;;;;;;;;;;;;;;;;
2021/06/10 04:23:19;;;;;;;;;7.00;7.00;;;;;21.29;53.69;101828.53;6299358;22;75802;-93
2021/06/10 04:26:01;;;;;;;;;;;;;;;;;;;;;
2021/06/10 04:28:31;;;;;;;;;8.00;7.00;;;;;21.15;53.08;101802.81;6300161;22;69605;-94
2021/06/10 04:31:08;;;;;;;;;;;;;;;;;;;;;
2021/06/10 04:33:34;;;;;;;;;6.00;6.00;;;;;21.31;52.98;101831.19;6303062;22;74402;-94
2021/06/10 04:36:09;;;;;;;;;10.00;8.33;;;;;21.11;53.07;101795.72;6278727;22;44754;-94
2021/06/10 04:38:41;;;;;;;;;8.00;8.00;;;;;21.18;53.52;101809.91;6277931;22;44716;-93
2021/06/10 04:41:35;;;;;;;;;7.67;6.33;;;;;21.34;52.39;101839.19;6277645;22;45284;-94
2021/06/10 04:44:04;;;;;;;;;7.00;7.00;;;;;21.30;52.02;101827.59;6278293;22;47674;-94
2021/06/10 04:46:57;;;;;;;;;7.33;7.33;;;;;21.34;52.08;101837.38;6278614;22;45852;-94
2021/06/10 04:49:35;;;;;;;;;;;;;;;;;;;;;
2021/06/10 04:52:10;;;;;;;;;6.33;6.33;;;;;21.22;51.24;101813.44;6291753;22;63740;-94
2021/06/10 04:54:44;;;;;;;;;6.00;6.00;;;;;21.29;51.24;101833.88;6265839;22;46736;-95
2021/06/10 04:57:09;;;;;;;;;7.33;4.33;;;;;21.27;50.98;101825.88;6286852;22;45453;-94
2021/06/10 04:59:38;;;;;;;;;7.00;7.00;;;;;21.32;51.39;101833.81;6257717;22;45298;-94
2021/06/10 05:02:07;;;;;;;;;7.00;7.00;;;;;21.28;50.41;101832.09;6258347;22;45407;-95
2021/06/10 05:05:03;;;;;;;;;6.33;6.33;;;;;21.22;51.00;101834.81;6257182;22;47383;-94
2021/06/10 05:07:34;;;;;;;;;7.00;7.00;;;;;21.25;50.83;101834.81;6161626;23;45384;-95
2021/06/10 05:10:22;;;;;;;;;;;;;;;;;;;;;
2021/06/10 05:12:53;;;;;;;;;8.33;6.67;;;;;21.24;50.81;101833.03;6168867;23;63574;-91
2021/06/10 05:15:18;;;;;;;;;8.67;8.00;;;;;21.23;50.77;101831.25;6171235;23;46285;-93
2021/06/10 05:17:45;;;;;;;;;8.00;8.00;;;;;21.38;50.88;101848.94;6158490;22;45123;-93
2021/06/10 05:20:10;;;;;;;;;5.00;5.00;;;;;21.33;50.63;101835.63;6155499;23;45277;-94
2021/06/10 05:22:36;;;;;;;;;6.00;6.00;;;;;21.36;50.15;101832.88;6155321;23;45309;-91
2021/06/10 05:25:02;;;;;;;;;6.00;6.00;;;;;21.43;50.71;101832.84;6128473;23;47956;-92
2021/06/10 05:27:36;;;;;;;;;7.33;6.00;;;;;21.43;50.96;101836.41;6154822;23;45408;-90
2021/06/10 05:30:04;;;;;;;;;8.00;7.00;;;;;21.45;50.14;101837.25;6129822;23;45217;-92
2021/06/10 05:32:29;;;;;;;;;7.00;7.00;;;;;21.46;50.65;101843.50;6156507;23;45352;-95
2021/06/10 05:34:55;;;;;;;;;7.00;7.00;;;;;21.39;50.44;101830.19;6161693;23;45342;-94
2021/06/10 05:37:20;;;;;;;;;6.33;6.33;;;;;21.46;49.39;101844.41;6157617;23;45206;-93
2021/06/10 05:39:46;;;;;;;;;6.00;5.00;;;;;21.48;49.06;101841.69;6157307;23;45405;-92
2021/06/10 05:42:13;;;;;;;;;4.00;4.00;;;;;21.47;49.23;101843.47;6158698;23;45390;-93
2021/06/10 05:44:40;;;;;;;;;4.67;4.67;;;;;21.43;48.68;101822.16;6241199;22;45282;-90
2021/06/10 05:47:05;;;;;;;;;5.33;5.00;;;;;21.52;48.10;101838.97;6259811;22;45867;-92
2021/06/10 05:49:32;;;;;;;;;6.00;5.00;;;;;21.55;47.71;101846.09;6288269;22;45127;-88
2021/06/10 05:51:59;;;;;;;;;4.00;4.00;;;;;21.57;48.06;101846.97;6279661;22;45292;-92
2021/06/10 05:54:24;;;;;;;;;6.00;5.00;;;;;21.52;46.99;101847.00;6277412;22;45909;-92
2021/06/10 05:56:54;;;;;;;;;3.00;3.00;;;;;21.58;45.51;101853.19;6280347;22;45410;-84
2021/06/10 05:59:19;;;;;;;;;3.67;3.67;;;;;21.60;45.47;101849.59;6285339;22;44620;-94
2021/06/10 06:01:45;;;;;;;;;5.00;4.00;;;;;21.59;45.69;101845.16;6311017;22;45254;-93
2021/06/10 06:04:10;;;;;;;;;6.00;4.00;;;;;21.57;45.24;101843.41;6316380;22;45343;-92
2021/06/10 06:06:39;;;;;;;;;3.67;3.00;;;;;21.60;45.58;101854.94;6326918;22;45146;-95
2021/06/10 06:12:23;;;;;;;;;3.67;3.67;;;;;21.56;45.29;101854.97;6273927;22;44756;-82
2021/06/10 06:14:57;;;;;;;;;3.33;3.33;;;;;21.55;45.21;101861.25;6293477;22;46622;-83
2021/06/10 06:17:22;;;;;;;;;4.67;3.00;;;;;21.56;45.18;101861.22;6311105;22;45000;-82
2021/06/10 06:19:47;;;;;;;;;3.00;3.00;;;;;21.49;44.73;101856.88;6287532;22;45385;-88
2021/06/10 06:22:40;;;;;;;;;5.67;3.00;;;;;21.52;44.33;101864.84;6302204;22;45430;-84
2021/06/10 06:25:07;;;;;;;;;5.67;3.67;;;;;21.51;43.82;101860.41;6290228;22;47296;-92
2021/06/10 06:27:34;;;;;;;;;3.67;3.67;;;;;21.51;43.66;101863.09;6281041;22;45212;-94
2021/06/10 06:30:06;;;;;;;;;5.00;3.00;;;;;21.49;43.39;101864.88;6250577;22;45379;-92
2021/06/10 06:33:20;;;;;;;;;3.00;3.00;;;;;21.36;42.32;101854.28;6250914;22;45248;-91
2021/06/10 06:36:03;;;;;;;;;5.67;4.00;;;;;21.43;42.71;101871.16;6099335;23;47365;-93
2021/06/10 06:38:28;;;;;;;;;3.67;3.67;;;;;21.35;42.89;101860.56;6099888;23;45175;-93
2021/06/10 06:40:57;;;;;;;;;6.00;4.00;;;;;21.52;43.10;101886.25;6124567;23;45239;-93
2021/06/10 06:43:25;;;;;;;;;5.00;2.00;;;;;21.48;42.48;101884.50;6107751;23;45509;-92
2021/06/10 06:45:58;;;;;;;;;4.00;4.00;;;;;21.54;43.21;101900.50;6114213;23;47763;-90
2021/06/10 06:48:28;;;;;;;;;3.33;3.00;;;;;21.52;43.32;101887.13;6129073;23;45385;-93
2021/06/10 06:51:00;;;;;;;;;3.33;3.00;;;;;21.59;42.55;101898.66;6102752;23;45410;-91
2021/06/10 06:53:31;;;;;;;;;3.00;2.67;;;;;21.57;40.96;101908.50;6106586;23;45279;-92
2021/06/10 06:55:58;;;;;;;;;2.00;2.00;;;;;21.36;41.38;101878.34;6109621;23;47083;-93
2021/06/10 06:58:32;;;;;;;;;3.00;3.00;;;;;21.52;40.67;101904.97;6113582;23;45431;-93
2021/06/10 07:01:01;;;;;;;;;6.33;3.00;;;;;21.59;41.95;101914.72;6107583;23;45366;-93
2021/06/10 07:03:56;;;;;;;;;4.00;3.00;;;;;21.66;42.15;101914.66;6101947;23;45437;-92
2021/06/10 07:06:28;;;;;;;;;2.33;2.33;;;;;21.62;42.05;101905.75;6279222;22;46404;-92
2021/06/10 07:09:13;;;;;;;;;;;;;;;;;;;;;
2021/06/10 07:11:41;;;;;;;;;4.00;4.00;;;;;21.64;41.63;101898.59;6166874;23;69560;-93
2021/06/10 07:14:26;;;;;;;;;;;;;;;;;;;;;
2021/06/10 07:17:04;;;;;;;;;;;;;;;;;;;;;
2021/06/10 07:19:47;;;;;;;;;;;;;;;;;;;;;
2021/06/10 07:22:26;;;;;;;;;;;;;;;;;;;;;
2021/06/10 07:25:02;;;;;;;;;6.00;3.00;;;;;21.68;42.52;101896.78;6161839;23;63506;-92
2021/06/10 07:27:31;;;;;;;;;3.00;3.00;;;;;21.70;41.50;101897.66;6142117;23;46963;-93
2021/06/10 07:30:10;;;;;;;;;;;;;;;;;;;;;
2021/06/10 07:32:41;;;;;;;;;3.67;3.33;;;;;21.82;41.86;101910.91;6172465;23;68252;-92
2021/06/10 07:35:20;;;;;;;;;;;;;;;;;;;;;
2021/06/10 07:38:10;;;;;;;;;3.00;3.00;;;;;21.83;41.55;101896.63;6172386;23;74718;-91
2021/06/10 07:40:44;;;;;;;;;3.33;3.33;;;;;21.95;41.62;101905.44;6148405;23;44698;-92
2021/06/10 07:43:12;;;;;;;;;4.67;3.00;;;;;21.96;41.40;101907.19;6240570;22;45498;-93
2021/06/10 07:45:45;;;;;;;;;3.00;3.00;;;;;21.95;41.05;101901.00;6262694;22;44895;-93
2021/06/10 07:48:16;;;;;;;;;4.00;4.00;;;;;22.12;41.93;101921.31;6267578;22;45448;-92
2021/06/10 07:50:52;;;;;;;;;3.33;3.33;;;;;22.21;41.20;101926.53;6269396;22;45416;-93
2021/06/10 07:53:28;;;;;;;;;5.33;4.00;;;;;22.09;42.15;101898.13;6265502;22;44724;-92
2021/06/10 07:55:56;;;;;;;;;4.67;3.00;;;;;22.16;41.67;101901.63;6265013;22;44741;-91
2021/06/10 07:58:34;;;;;;;;;;;;;;;;;;;;;
2021/06/10 08:01:01;;;;;;;;;5.00;4.00;;;;;22.29;41.59;101905.00;6279923;22;73347;-92
2021/06/10 08:03:26;;;;;;;;;5.00;4.67;;;;;22.28;40.80;101900.56;6253221;22;45371;-93
2021/06/10 08:05:54;;;;;;;;;5.33;3.00;;;;;22.51;41.19;101923.47;6254239;22;45549;-92
2021/06/10 08:08:26;;;;;;;;;4.00;4.00;;;;;22.47;41.43;101904.78;6254267;22;46997;-93
2021/06/10 08:10:56;;;;;;;;;3.00;3.00;;;;;22.55;41.27;101906.44;6252152;22;45422;-92
2021/06/10 08:13:29;;;;;;;;;4.00;2.67;;;;;22.79;40.85;101922.22;6252105;22;45257;-94
2021/06/10 08:15:55;;;;;;;;;4.33;3.67;;;;;22.88;40.74;101919.41;6250767;22;45510;-92
2021/06/10 08:18:32;;;;;;;;;4.33;2.33;;;;;22.84;41.48;101888.19;6251045;22;46072;-92
2021/06/10 08:20:58;;;;;;;;;4.33;4.00;;;;;23.21;40.95;101907.25;6251355;22;45335;-91
2021/06/10 08:23:30;;;;;;;;;5.00;4.67;;;;;23.50;40.29;101910.38;6250337;22;45398;-91
2021/06/10 08:26:01;;;;;;;;;3.00;3.00;;;;;23.73;40.93;101912.63;6250923;22;45556;-92
2021/06/10 08:28:30;;;;;;;;;5.00;5.00;;;;;23.99;40.32;101907.63;6250735;22;46627;-92
2021/06/10 08:30:56;;;;;;;;;4.00;4.00;;;;;24.21;39.85;101902.69;6251366;22;45241;-92
2021/06/10 08:33:23;;;;;;;;;3.00;3.00;;;;;24.36;40.11;101900.63;6250249;22;45296;-92
2021/06/10 08:35:59;;;;;;;;;;;;;;;;;;;;;
2021/06/10 08:38:38;;;;;;;;;4.67;4.67;;;;;24.77;39.46;101894.34;6277933;22;75539;-93
2021/06/10 08:41:08;;;;;;;;;5.33;4.00;;;;;24.99;38.72;101897.41;6261184;22;45793;-92
2021/06/10 08:43:34;;;;;;;;;5.33;4.00;;;;;25.31;38.60;101890.31;6288877;22;44668;-91
2021/06/10 08:46:07;;;;;;;;;6.00;5.00;;;;;25.66;38.27;101884.88;6283747;22;45118;-92
2021/06/10 08:48:36;;;;;;;;;6.33;5.00;;;;;26.01;36.97;101900.97;6284468;22;45498;-91
2021/06/10 08:51:06;;;;;;;;;7.67;4.00;;;;;26.39;37.52;101897.19;6263969;22;45638;-91
2021/06/10 08:53:37;;;;;;;;;5.00;5.00;;;;;26.84;36.33;101892.19;6266460;22;45253;-91
2021/06/10 08:56:07;;;;;;;;;4.00;4.00;;;;;26.97;35.97;101894.47;6262994;22;44820;-92
2021/06/10 08:58:37;;;;;;;;;4.00;4.00;;;;;27.05;35.36;101901.34;6265303;22;46796;-93
2021/06/10 09:01:51;;;;;;;;;5.33;5.00;;;;;26.93;35.82;101880.19;6263001;22;45294;-92
2021/06/10 09:04:19;;;;;;;;;5.33;5.33;;;;;26.93;36.15;101896.38;6274478;22;45413;-92
2021/06/10 09:07:03;;;;;;;;;;;;;;;;;;;;;
2021/06/10 09:09:36;;;;;;;;;8.67;6.00;;;;;26.99;36.50;101876.41;6278199;22;74992;-92
2021/06/10 09:12:07;;;;;;;;;7.00;5.00;;;;;27.19;36.22;101881.13;6253077;22;45417;-92
2021/06/10 09:14:57;;;;;;;;;7.00;6.00;;;;;27.55;34.71;101904.19;6254211;22;45168;-93
2021/06/10 09:17:47;;;;;;;;;7.00;6.00;;;;;28.03;32.63;101898.84;6262054;22;45323;-91
2021/06/10 09:20:19;;;;;;;;;7.00;7.00;;;;;28.67;34.52;101896.38;6296273;22;45302;-93
2021/06/10 09:22:57;;;;;;;;;6.00;5.00;;;;;28.97;33.58;101881.63;6267899;22;45343;-92
2021/06/10 09:25:24;;;;;;;;;6.00;6.00;;;;;29.58;33.54;101891.69;6261635;22;45401;-93
2021/06/10 09:27:59;;;;;;;;;4.33;4.33;;;;;30.24;32.65;101886.88;6255370;22;45189;-91
2021/06/10 09:30:35;;;;;;;;;6.67;6.67;;;;;30.70;31.36;101879.25;6250989;22;46704;-92
2021/06/10 09:33:04;;;;;;;;;4.33;4.33;;;;;30.97;31.11;101887.88;6250433;22;45813;-92
2021/06/10 09:35:32;;;;;;;;;4.67;4.67;;;;;31.28;30.70;101889.94;6249595;22;45297;-92
2021/06/10 09:38:00;;;;;;;;;6.33;6.00;;;;;31.78;30.31;101896.34;6250316;22;45408;-92
2021/06/10 09:40:31;;;;;;;;;6.33;4.67;;;;;32.03;29.48;101895.94;6249010;22;47183;-92
2021/06/10 09:42:58;;;;;;;;;4.00;4.00;;;;;32.57;29.07;101897.47;6277518;22;45103;-92
2021/06/10 09:45:28;;;;;;;;;7.00;4.33;;;;;33.67;28.40;101893.72;6277711;22;45193;-92
2021/06/10 09:48:01;;;;;;;;;7.00;6.33;;;;;34.39;26.46;101891.91;6249566;22;45569;-93
2021/06/10 09:50:42;;;;;;;;;;;;;;;;;;;;;
2021/06/10 09:53:15;;;;;;;;;5.00;4.33;;;;;33.97;26.75;101890.03;6273972;22;72080;-92
2021/06/10 09:55:51;;;;;;;;;5.67;5.00;;;;;33.18;26.72;101896.66;6277193;22;45514;-92
2021/06/10 09:58:17;;;;;;;;;8.33;5.67;;;;;32.53;27.89;101914.94;6250775;22;45307;-92
2021/06/10 10:00:52;;;;;;;;;5.67;4.67;;;;;32.01;27.38;101909.63;6249979;22;47117;-91
2021/06/10 10:03:40;;;;;;;;;5.67;5.00;;;;;31.87;28.09;101911.28;6250212;22;45188;-91
2021/06/10 10:06:17;;;;;;;;;6.00;5.33;;;;;31.81;28.96;101905.31;6277979;22;45185;-92
2021/06/10 10:08:43;;;;;;;;;6.00;5.00;;;;;32.13;26.95;101905.41;6250548;22;45485;-91
2021/06/10 10:11:11;;;;;;;;;5.00;3.67;;;;;31.78;27.92;101895.47;6249830;22;47122;-91
2021/06/10 10:13:39;;;;;;;;;5.00;5.00;;;;;32.19;28.32;101906.88;6250182;22;45276;-93
2021/06/10 10:16:13;;;;;;;;;6.00;5.00;;;;;32.35;27.50;101893.25;6250500;22;45328;-92
2021/06/10 10:18:43;;;;;;;;;4.33;4.33;;;;;32.16;28.66;101880.72;6250630;22;45324;-93
2021/06/10 10:21:08;;;;;;;;;4.67;4.67;;;;;31.83;28.56;101879.81;6278019;22;45359;-91
2021/06/10 10:23:43;;;;;;;;;6.00;6.00;;;;;31.74;28.95;101893.88;6249869;22;45374;-92
2021/06/10 10:26:11;;;;;;;;;6.00;5.33;;;;;31.94;29.06;101892.75;6278419;22;45381;-91
2021/06/10 10:28:38;;;;;;;;;9.00;6.33;;;;;32.17;28.39;101885.22;6278576;22;45082;-91
2021/06/10 10:31:12;;;;;;;;;7.67;5.67;;;;;32.00;27.93;101878.84;6254025;22;48001;-91
2021/06/10 10:33:50;;;;;;;;;7.00;7.00;;;;;33.66;28.11;101864.69;6253787;22;45249;-92
2021/06/10 10:36:43;;;;;;;;;9.00;6.00;;;;;35.31;25.77;101884.84;6250228;22;45189;-92
2021/06/10 10:39:56;;;;;;;;;7.00;6.33;;;;;36.77;24.89;101891.59;6274823;22;45411;-92
2021/06/10 10:43:07;;;;;;;;;;;;;;;;;;;;;
2021/06/10 10:45:43;;;;;;;;;6.33;6.33;;;;;36.87;25.05;101888.19;5977619;23;72834;-92
2021/06/10 10:48:18;;;;;;;;;;;;;;;;;;;;;
2021/06/10 10:50:48;;;;;;;;;8.00;7.67;;;;;36.03;25.03;101887.97;5987885;23;63919;-92
2021/06/10 10:53:19;;;;;;;;;6.67;6.00;;;;;36.02;25.52;101887.06;5967295;23;47041;-93
2021/06/10 10:56:04;;;;;;;;;6.00;6.00;;;;;36.38;24.29;101879.00;5982916;23;45802;-92
2021/06/10 10:58:29;;;;;;;;;6.67;6.67;;;;;37.29;23.98;101872.06;5980586;23;45325;-92
2021/06/10 11:01:15;;;;;;;;;9.33;8.67;;;;;39.07;22.94;101896.94;5956456;23;45475;-93
2021/06/10 11:03:52;;;;;;;;;5.00;5.00;;;;;40.17;21.52;101874.44;5956180;23;47791;-92
2021/06/10 11:06:29;;;;;;;;;6.00;5.00;;;;;38.94;21.68;101877.06;5981985;23;45223;-92
2021/06/10 11:09:14;;;;;;;;;10.33;7.00;;;;;37.63;22.83;101878.63;5992556;23;45608;-91
2021/06/10 11:12:18;;;;;;;;;7.33;6.33;;;;;36.63;24.40;101876.25;5971285;23;45146;-92
2021/06/10 11:15:01;;;;;;;;;11.00;8.00;;;;;35.92;24.29;101878.69;5968262;23;47624;-91
2021/06/10 11:17:32;;;;;;;;;7.00;7.00;;;;;35.36;24.13;101866.28;5984877;23;44670;-91
2021/06/10 11:20:15;;;;;;;;;7.00;7.00;;;;;34.98;24.71;101874.31;6157643;23;45434;-94
2021/06/10 11:23:14;;;;;;;;;6.67;6.67;;;;;34.51;25.35;101860.16;6266567;22;45558;-93
2021/06/10 11:25:52;;;;;;;;;10.00;8.33;;;;;34.14;25.63;101852.59;6262002;22;47029;-93
2021/06/10 11:28:32;;;;;;;;;8.33;8.33;;;;;33.91;26.60;101857.72;6263728;22;45238;-93
2021/06/10 11:31:30;;;;;;;;;9.00;8.00;;;;;33.60;26.91;101845.03;6259181;22;45452;-93
2021/06/10 11:35:08;;;;;;;;;9.00;7.33;;;;;33.46;26.52;101858.66;6264619;22;45319;-94
2021/06/10 11:38:01;;;;;;;;;;;;;;;;;;;;;
2021/06/10 11:40:39;;;;;;;;;8.00;7.00;;;;;32.99;28.05;101862.38;6302432;22;71842;-93
2021/06/10 11:43:27;;;;;;;;;;;;;;;;;;;;;
2021/06/10 11:46:06;;;;;;;;;8.00;8.00;;;;;32.80;28.26;101854.44;6302611;22;63584;-92
2021/06/10 11:49:31;;;;;;;;;;;;;;;;;;;;;
2021/06/10 11:52:04;;;;;;;;;8.00;6.67;;;;;32.65;28.62;101853.50;6277779;22;44745;-92
2021/06/10 11:54:45;;;;;;;;;;;;;;;;;;;;;
2021/06/10 11:57:40;;;;;;;;;;;;;;;;;;;;;
2021/06/10 12:00:47;;;;;;;;;;;;;;;;;;;;;
2021/06/10 12:04:19;;;;;;;;;;;;;;;;;;;;;
2021/06/10 12:06:40;;;;;;;;;7.00;7.00;;;;;32.12;29.29;101832.91;6293573;22;44881;-94
2021/06/10 12:09:27;;;;;;;;;;;;;;;;;;;;;
2021/06/10 12:15:43;;;;;;;;;;;;;;;;;;;;;
2021/06/10 12:22:22;;;;;;;;;9.67;8.00;;;;;31.80;29.50;101841.03;6202984;23;45294;-95
2021/06/10 12:25:06;;;;;;;;;;;;;;;;;;;;;
2021/06/10 12:27:43;;;;;;;;;8.00;8.00;;;;;31.49;29.76;101811.00;6081910;23;71850;-92
2021/06/10 12:30:37;;;;;;;;;;;;;;;;;;;;;
2021/06/10 12:33:52;;;;;;;;;;;;;;;;;;;;;
2021/06/10 12:37:06;;;;;;;;;;;;;;;;;;;;;
2021/06/10 12:39:59;;;;;;;;;;;;;;;;;;;;;
2021/06/10 12:42:53;;;;;;;;;;;;;;;;;;;;;
2021/06/10 12:45:44;;;;;;;;;10.67;8.00;;;;;31.20;30.86;101807.03;6070009;23;63573;-94
2021/06/10 12:49:33;;;;;;;;;;;;;;;;;;;;;
2021/06/10 12:52:37;;;;;;;;;8.00;8.00;;;;;30.94;30.95;101797.56;5908201;23;71864;-94
2021/06/10 12:55:20;;;;;;;;;10.00;9.00;;;;;30.88;31.69;101798.78;5944836;23;45298;-94
2021/06/10 12:58:08;;;;;;;;;;;;;;;;;;;;;
2021/06/10 13:00:41;;;;;;;;;10.00;10.00;;;;;30.81;31.52;101783.75;6006228;23;73615;-95
2021/06/10 13:06:30;;;;;;;;;8.00;7.67;;;;;30.74;32.01;101792.19;6036771;23;45408;-94
2021/06/10 13:09:56;;;;;;;;;;;;;;;;;;;;;
2021/06/10 13:12:37;;;;;;;;;;;;;;;;;;;;;
2021/06/10 13:18:21;;;;;;;;;10.00;10.00;;;;;30.56;32.15;101788.63;6007145;23;45273;-94
2021/06/10 13:21:55;;;;;;;;;;;;;;;;;;;;;
2021/06/10 13:27:47;;;;;;;;;9.00;8.00;;;;;30.16;32.76;101770.63;5953566;23;44645;-94
2021/06/10 13:30:41;;;;;;;;;;;;;;;;;;;;;
2021/06/10 13:33:23;;;;;;;;;9.33;9.33;;;;;30.06;33.53;101774.75;5923755;24;63481;-94